PWSweather.com
Personal Weather Stations
Station Observations
03410
LignerollesTF

LignerollesTF

Lat: 46.292342, Lon: 2.589435

Elevation: 1014

Station Type: Vantage Vue

http://meteo-lignerolles.fr

Latest ConditionsUpdated 9:40:02 AM GMT+01:01 Thursday, Dec 12, 2019
Currently Today's Max Today's Min Today's Average
Temperature 37.2°F2.9°C 39.0°F3.9°C 34.5°F1.4°C 35.9°F2.2°C
Dew Point 34.8°F1.6°C 35.8°F2.1°C 32.6°F0.3°C 33.4°F0.8°C
Winds 3.5 mph S5.6 kmh S 6.9 mph -11.1 kmh - - 4.5 mph 7.2 kmh
Wind Gusts 3.5 mph5.6 kmh 12.7 mph20.4 kmh - -
Humidity 91% 93% 86% 91%
Pressure 29.87 in1011.5 mb 29.93 in1013.5 mb 29.86 in1011.2 mb -
Hour Temp Dew Point Humidity Winds Wind Gusts Pressure Precip Precip Rate Daily Precip Total
09:40 AM 37.2°F2.9°C 34.8°F1.6°C 91% 3.5 mph S5.6 kmh S 3.5 mph5.6 kmh 29.87 in1011.5 mb - 0.00 in0.0 mm 0.00 in0.0 mm
09:30 AM 36.7°F2.6°C 34.3°F1.3°C 91% 3.5 mph SW5.6 kmh SW 3.5 mph5.6 kmh 29.86 in1011.2 mb - 0.00 in0.0 mm 0.00 in0.0 mm
09:20 AM 36.3°F2.4°C 33.9°F1.1°C 91% 3.5 mph SW5.6 kmh SW 4.6 mph7.4 kmh 29.86 in1011.2 mb - 0.00 in0.0 mm 0.00 in0.0 mm
09:10 AM 36.1°F2.3°C 33.8°F1.0°C 91% 3.5 mph SW5.6 kmh SW 4.6 mph7.4 kmh 29.87 in1011.5 mb - 0.00 in0.0 mm 0.00 in0.0 mm
09:00 AM 35.4°F1.9°C 33.3°F0.7°C 92% 3.5 mph SSW5.6 kmh SSW 2.3 mph3.7 kmh 29.88 in1011.9 mb - 0.00 in0.0 mm 0.00 in0.0 mm
08:50 AM 35.2°F1.8°C 33.1°F0.6°C 92% 3.5 mph SW5.6 kmh SW 5.8 mph9.3 kmh 29.88 in1011.9 mb - 0.00 in0.0 mm 0.00 in0.0 mm
08:40 AM 35.1°F1.7°C 33.0°F0.6°C 92% 4.6 mph SSE7.4 kmh SSE 4.6 mph7.4 kmh 29.88 in1011.9 mb - 0.00 in0.0 mm 0.00 in0.0 mm
08:30 AM 34.7°F1.5°C 32.6°F0.3°C 92% 4.6 mph SW7.4 kmh SW 5.8 mph9.3 kmh 29.88 in1011.9 mb - 0.00 in0.0 mm 0.00 in0.0 mm
08:20 AM 34.9°F1.6°C 32.8°F0.4°C 92% 4.6 mph SW7.4 kmh SW 4.6 mph7.4 kmh 29.89 in1012.2 mb - 0.00 in0.0 mm 0.00 in0.0 mm
08:10 AM 34.9°F1.6°C 32.8°F0.4°C 92% 3.5 mph WSW5.6 kmh WSW 5.8 mph9.3 kmh 29.88 in1011.9 mb - 0.00 in0.0 mm 0.00 in0.0 mm
08:00 AM 34.9°F1.6°C 32.8°F0.4°C 92% 3.5 mph SW5.6 kmh SW 4.6 mph7.4 kmh 29.89 in1012.2 mb - 0.00 in0.0 mm 0.00 in0.0 mm
07:50 AM 34.9°F1.6°C 33.1°F0.6°C 93% 4.6 mph SSW7.4 kmh SSW 4.6 mph7.4 kmh 29.89 in1012.2 mb - 0.00 in0.0 mm 0.00 in0.0 mm
07:40 AM 34.9°F1.6°C 33.1°F0.6°C 93% 3.5 mph WSW5.6 kmh WSW 1.2 mph1.9 kmh 29.89 in1012.2 mb - 0.00 in0.0 mm 0.00 in0.0 mm
07:30 AM 34.7°F1.5°C 32.9°F0.5°C 93% 3.5 mph W5.6 kmh W 2.3 mph3.7 kmh 29.89 in1012.2 mb - 0.00 in0.0 mm 0.00 in0.0 mm
07:20 AM 34.5°F1.4°C 32.7°F0.4°C 93% 2.3 mph W3.7 kmh W 2.3 mph3.7 kmh 29.89 in1012.2 mb - 0.00 in0.0 mm 0.00 in0.0 mm
07:10 AM 34.7°F1.5°C 32.9°F0.5°C 93% 3.5 mph WNW5.6 kmh WNW 2.3 mph3.7 kmh 29.89 in1012.2 mb - 0.00 in0.0 mm 0.00 in0.0 mm
07:00 AM 34.9°F1.6°C 33.1°F0.6°C 93% 3.5 mph SW5.6 kmh SW 2.3 mph3.7 kmh 29.90 in1012.5 mb - 0.00 in0.0 mm 0.00 in0.0 mm
06:50 AM 34.7°F1.5°C 32.9°F0.5°C 93% 3.5 mph S5.6 kmh S 4.6 mph7.4 kmh 29.90 in1012.5 mb - 0.00 in0.0 mm 0.00 in0.0 mm
06:40 AM 34.7°F1.5°C 32.9°F0.5°C 93% 3.5 mph SSW5.6 kmh SSW 5.8 mph9.3 kmh 29.90 in1012.5 mb - 0.00 in0.0 mm 0.00 in0.0 mm
06:30 AM 34.9°F1.6°C 32.8°F0.4°C 92% 2.3 mph SW3.7 kmh SW 1.2 mph1.9 kmh 29.90 in1012.5 mb - 0.00 in0.0 mm 0.00 in0.0 mm
06:20 AM 35.2°F1.8°C 33.1°F0.6°C 92% 3.5 mph SW5.6 kmh SW 4.6 mph7.4 kmh 29.91 in1012.9 mb - 0.00 in0.0 mm 0.00 in0.0 mm
06:10 AM 35.2°F1.8°C 33.1°F0.6°C 92% 3.5 mph SW5.6 kmh SW 3.5 mph5.6 kmh 29.91 in1012.9 mb - 0.00 in0.0 mm 0.00 in0.0 mm
06:00 AM 35.4°F1.9°C 33.3°F0.7°C 92% 4.6 mph SSW7.4 kmh SSW 5.8 mph9.3 kmh 29.91 in1012.9 mb - 0.00 in0.0 mm 0.00 in0.0 mm
05:50 AM 35.8°F2.1°C 33.4°F0.8°C 91% 4.6 mph S7.4 kmh S 3.5 mph5.6 kmh 29.91 in1012.9 mb - 0.00 in0.0 mm 0.00 in0.0 mm
05:40 AM 35.4°F1.9°C 33.1°F0.6°C 91% 3.5 mph WSW5.6 kmh WSW 6.9 mph11.1 kmh 29.91 in1012.9 mb - 0.00 in0.0 mm 0.00 in0.0 mm
05:30 AM 35.6°F2.0°C 33.2°F0.7°C 91% 3.5 mph SW5.6 kmh SW 2.3 mph3.7 kmh 29.91 in1012.9 mb - 0.00 in0.0 mm 0.00 in0.0 mm
05:20 AM 35.8°F2.1°C 33.4°F0.8°C 91% 4.6 mph SSW7.4 kmh SSW 4.6 mph7.4 kmh 29.91 in1012.9 mb - 0.00 in0.0 mm 0.00 in0.0 mm
05:10 AM 35.8°F2.1°C 33.4°F0.8°C 91% 4.6 mph SW7.4 kmh SW 3.5 mph5.6 kmh 29.91 in1012.9 mb - 0.00 in0.0 mm 0.00 in0.0 mm
05:00 AM 35.8°F2.1°C 33.4°F0.8°C 91% 5.8 mph SW9.3 kmh SW 6.9 mph11.1 kmh 29.91 in1012.9 mb - 0.00 in0.0 mm 0.00 in0.0 mm
04:50 AM 35.6°F2.0°C 33.2°F0.7°C 91% 4.6 mph SW7.4 kmh SW 10.4 mph16.7 kmh 29.91 in1012.9 mb - 0.00 in0.0 mm 0.00 in0.0 mm
04:40 AM 35.4°F1.9°C 33.1°F0.6°C 91% 4.6 mph SW7.4 kmh SW 5.8 mph9.3 kmh 29.91 in1012.9 mb - 0.00 in0.0 mm 0.00 in0.0 mm
04:30 AM 35.8°F2.1°C 33.4°F0.8°C 91% 4.6 mph SW7.4 kmh SW 4.6 mph7.4 kmh 29.91 in1012.9 mb - 0.00 in0.0 mm 0.00 in0.0 mm
04:20 AM 36.0°F2.2°C 33.3°F0.7°C 90% 4.6 mph SW7.4 kmh SW 4.6 mph7.4 kmh 29.91 in1012.9 mb - 0.00 in0.0 mm 0.00 in0.0 mm
04:10 AM 36.1°F2.3°C 33.5°F0.8°C 90% 5.8 mph SW9.3 kmh SW 4.6 mph7.4 kmh 29.92 in1013.2 mb - 0.00 in0.0 mm 0.00 in0.0 mm
04:00 AM 36.1°F2.3°C 33.8°F1.0°C 91% 5.8 mph SW9.3 kmh SW 11.5 mph18.5 kmh 29.92 in1013.2 mb - 0.00 in0.0 mm 0.00 in0.0 mm
03:50 AM 36.0°F2.2°C 33.6°F0.9°C 91% 4.6 mph SW7.4 kmh SW 5.8 mph9.3 kmh 29.92 in1013.2 mb - 0.00 in0.0 mm 0.00 in0.0 mm
03:40 AM 36.1°F2.3°C 33.5°F0.8°C 90% 5.8 mph SW9.3 kmh SW 3.5 mph5.6 kmh 29.92 in1013.2 mb - 0.00 in0.0 mm 0.00 in0.0 mm
03:30 AM 36.1°F2.3°C 33.8°F1.0°C 91% 5.8 mph SW9.3 kmh SW 8.1 mph13.0 kmh 29.92 in1013.2 mb - 0.00 in0.0 mm 0.00 in0.0 mm
03:20 AM 35.6°F2.0°C 33.2°F0.7°C 91% 3.5 mph SW5.6 kmh SW 4.6 mph7.4 kmh 29.93 in1013.5 mb - 0.00 in0.0 mm 0.00 in0.0 mm
03:10 AM 35.4°F1.9°C 33.1°F0.6°C 91% 4.6 mph WSW7.4 kmh WSW 3.5 mph5.6 kmh 29.93 in1013.5 mb - 0.00 in0.0 mm 0.00 in0.0 mm
03:00 AM 35.4°F1.9°C 33.1°F0.6°C 91% 5.8 mph SW9.3 kmh SW 5.8 mph9.3 kmh 29.93 in1013.5 mb - 0.00 in0.0 mm 0.00 in0.0 mm
02:50 AM 35.2°F1.8°C 32.9°F0.5°C 91% 4.6 mph SW7.4 kmh SW 9.2 mph14.8 kmh 29.93 in1013.5 mb - 0.00 in0.0 mm 0.00 in0.0 mm
02:40 AM 35.4°F1.9°C 32.8°F0.4°C 90% 4.6 mph SW7.4 kmh SW 4.6 mph7.4 kmh 29.92 in1013.2 mb - 0.00 in0.0 mm 0.00 in0.0 mm
02:30 AM 35.2°F1.8°C 32.9°F0.5°C 91% 4.6 mph SW7.4 kmh SW 4.6 mph7.4 kmh 29.92 in1013.2 mb - 0.00 in0.0 mm 0.00 in0.0 mm
02:20 AM 35.4°F1.9°C 32.8°F0.4°C 90% 3.5 mph SW5.6 kmh SW 3.5 mph5.6 kmh 29.93 in1013.5 mb - 0.00 in0.0 mm 0.00 in0.0 mm
02:10 AM 35.6°F2.0°C 33.2°F0.7°C 91% 4.6 mph SSW7.4 kmh SSW 4.6 mph7.4 kmh 29.93 in1013.5 mb - 0.00 in0.0 mm 0.00 in0.0 mm
02:00 AM 35.6°F2.0°C 33.0°F0.6°C 90% 3.5 mph S5.6 kmh S 5.8 mph9.3 kmh 29.93 in1013.5 mb - 0.00 in0.0 mm 0.00 in0.0 mm
01:50 AM 36.0°F2.2°C 33.3°F0.7°C 90% 4.6 mph S7.4 kmh S 4.6 mph7.4 kmh 29.93 in1013.5 mb - 0.00 in0.0 mm 0.00 in0.0 mm
01:40 AM 36.0°F2.2°C 33.3°F0.7°C 90% 3.5 mph SW5.6 kmh SW 4.6 mph7.4 kmh 29.93 in1013.5 mb - 0.00 in0.0 mm 0.00 in0.0 mm
01:30 AM 36.3°F2.4°C 33.4°F0.8°C 89% 3.5 mph SW5.6 kmh SW 3.5 mph5.6 kmh 29.93 in1013.5 mb - 0.00 in0.0 mm 0.00 in0.0 mm
01:20 AM 36.9°F2.7°C 33.6°F0.9°C 88% 3.5 mph SW5.6 kmh SW 4.6 mph7.4 kmh 29.93 in1013.5 mb - 0.00 in0.0 mm 0.00 in0.0 mm
01:10 AM 37.4°F3.0°C 33.9°F1.1°C 87% 5.8 mph WSW9.3 kmh WSW 3.5 mph5.6 kmh 29.93 in1013.5 mb - 0.00 in0.0 mm 0.00 in0.0 mm
01:00 AM 37.8°F3.2°C 33.9°F1.1°C 86% 6.9 mph WSW11.1 kmh WSW 11.5 mph18.5 kmh 29.93 in1013.5 mb - 0.00 in0.0 mm 0.00 in0.0 mm
12:50 AM 38.1°F3.4°C 34.3°F1.3°C 86% 6.9 mph WSW11.1 kmh WSW 5.8 mph9.3 kmh 29.93 in1013.5 mb - 0.00 in0.0 mm 0.00 in0.0 mm
12:40 AM 38.5°F3.6°C 34.7°F1.5°C 86% 6.9 mph WSW11.1 kmh WSW 8.1 mph13.0 kmh 29.93 in1013.5 mb - 0.00 in0.0 mm 0.00 in0.0 mm
12:30 AM 38.7°F3.7°C 34.8°F1.6°C 86% 6.9 mph SW11.1 kmh SW 12.7 mph20.4 kmh 29.93 in1013.5 mb - 0.00 in0.0 mm 0.00 in0.0 mm
12:20 AM 39.0°F3.9°C 35.2°F1.8°C 86% 6.9 mph W11.1 kmh W 6.9 mph11.1 kmh 29.93 in1013.5 mb - 0.00 in0.0 mm 0.00 in0.0 mm
12:10 AM 39.0°F3.9°C 35.5°F1.9°C 87% 5.8 mph WSW9.3 kmh WSW 6.9 mph11.1 kmh 29.93 in1013.5 mb - 0.00 in0.0 mm 0.00 in0.0 mm
12:00 AM 39.0°F3.9°C 35.8°F2.1°C 88% 5.8 mph WSW9.3 kmh WSW 4.6 mph7.4 kmh 29.92 in1013.2 mb - 0.00 in0.0 mm 0.00 in0.0 mm